sensor_id;sensor_type;location;lat;lon;timestamp;P1;durP1;ratioP1;P2;durP2;ratioP2
58581;SDS011;44361;51.476;5.700;2023-09-19T00:02:19;10.48;;;2.38;;
58581;SDS011;44361;51.476;5.700;2023-09-19T00:04:45;13.30;;;2.38;;
58581;SDS011;44361;51.476;5.700;2023-09-19T00:07:10;13.90;;;2.28;;
58581;SDS011;44361;51.476;5.700;2023-09-19T00:09:36;14.95;;;2.47;;
58581;SDS011;44361;51.476;5.700;2023-09-19T00:12:05;13.70;;;2.03;;
58581;SDS011;44361;51.476;5.700;2023-09-19T00:14:31;14.65;;;2.30;;
58581;SDS011;44361;51.476;5.700;2023-09-19T00:17:04;15.43;;;2.70;;
58581;SDS011;44361;51.476;5.700;2023-09-19T00:19:36;25.00;;;2.88;;
58581;SDS011;44361;51.476;5.700;2023-09-19T00:22:02;10.15;;;2.35;;
58581;SDS011;44361;51.476;5.700;2023-09-19T00:24:29;14.88;;;2.10;;
58581;SDS011;44361;51.476;5.700;2023-09-19T00:26:55;15.38;;;2.95;;
58581;SDS011;44361;51.476;5.700;2023-09-19T00:29:21;15.77;;;2.00;;
58581;SDS011;44361;51.476;5.700;2023-09-19T00:31:48;12.15;;;2.38;;
58581;SDS011;44361;51.476;5.700;2023-09-19T00:34:15;17.67;;;2.33;;
58581;SDS011;44361;51.476;5.700;2023-09-19T00:36:41;15.57;;;2.53;;
58581;SDS011;44361;51.476;5.700;2023-09-19T00:39:08;15.32;;;3.17;;
58581;SDS011;44361;51.476;5.700;2023-09-19T00:41:33;14.93;;;2.42;;
58581;SDS011;44361;51.476;5.700;2023-09-19T00:44:01;14.25;;;2.60;;
58581;SDS011;44361;51.476;5.700;2023-09-19T00:46:28;16.13;;;2.25;;
58581;SDS011;44361;51.476;5.700;2023-09-19T00:48:55;15.57;;;2.92;;
58581;SDS011;44361;51.476;5.700;2023-09-19T00:51:22;15.77;;;2.60;;
58581;SDS011;44361;51.476;5.700;2023-09-19T00:53:50;13.05;;;2.53;;
58581;SDS011;44361;51.476;5.700;2023-09-19T00:56:17;10.20;;;2.17;;
58581;SDS011;44361;51.476;5.700;2023-09-19T00:58:43;11.82;;;2.10;;
58581;SDS011;44361;51.476;5.700;2023-09-19T01:01:09;16.02;;;3.42;;
58581;SDS011;44361;51.476;5.700;2023-09-19T01:03:37;12.57;;;2.17;;
58581;SDS011;44361;51.476;5.700;2023-09-19T01:06:02;13.57;;;2.40;;
58581;SDS011;44361;51.476;5.700;2023-09-19T01:08:28;16.52;;;2.72;;
58581;SDS011;44361;51.476;5.700;2023-09-19T01:11:11;18.02;;;2.20;;
58581;SDS011;44361;51.476;5.700;2023-09-19T01:16:42;7.75;;;2.13;;
58581;SDS011;44361;51.476;5.700;2023-09-19T01:30:32;9.75;;;2.17;;
58581;SDS011;44361;51.476;5.700;2023-09-19T01:33:04;17.27;;;2.90;;
58581;SDS011;44361;51.476;5.700;2023-09-19T01:35:31;14.43;;;2.33;;
58581;SDS011;44361;51.476;5.700;2023-09-19T01:37:57;13.07;;;2.25;;
58581;SDS011;44361;51.476;5.700;2023-09-19T01:40:24;14.95;;;2.40;;
58581;SDS011;44361;51.476;5.700;2023-09-19T01:42:58;10.70;;;2.03;;
58581;SDS011;44361;51.476;5.700;2023-09-19T01:51:00;22.60;;;2.55;;
58581;SDS011;44361;51.476;5.700;2023-09-19T01:56:29;9.20;;;2.63;;
58581;SDS011;44361;51.476;5.700;2023-09-19T01:59:02;13.52;;;2.25;;
58581;SDS011;44361;51.476;5.700;2023-09-19T02:01:32;16.88;;;2.65;;
58581;SDS011;44361;51.476;5.700;2023-09-19T02:03:59;12.13;;;2.55;;
58581;SDS011;44361;51.476;5.700;2023-09-19T02:06:25;9.77;;;1.98;;
58581;SDS011;44361;51.476;5.700;2023-09-19T02:08:51;14.52;;;2.33;;
58581;SDS011;44361;51.476;5.700;2023-09-19T02:11:19;9.63;;;1.48;;
58581;SDS011;44361;51.476;5.700;2023-09-19T02:13:44;9.32;;;2.30;;
58581;SDS011;44361;51.476;5.700;2023-09-19T02:16:10;8.68;;;1.73;;
58581;SDS011;44361;51.476;5.700;2023-09-19T02:18:37;11.02;;;2.10;;
58581;SDS011;44361;51.476;5.700;2023-09-19T02:21:04;9.38;;;2.15;;
58581;SDS011;44361;51.476;5.700;2023-09-19T02:23:31;8.88;;;2.08;;
58581;SDS011;44361;51.476;5.700;2023-09-19T02:25:58;11.70;;;1.75;;
58581;SDS011;44361;51.476;5.700;2023-09-19T02:28:25;9.93;;;2.25;;
58581;SDS011;44361;51.476;5.700;2023-09-19T02:30:55;9.48;;;2.33;;
58581;SDS011;44361;51.476;5.700;2023-09-19T02:33:21;9.85;;;2.10;;
58581;SDS011;44361;51.476;5.700;2023-09-19T02:35:47;11.07;;;2.17;;
58581;SDS011;44361;51.476;5.700;2023-09-19T02:38:12;10.70;;;2.10;;
58581;SDS011;44361;51.476;5.700;2023-09-19T02:40:39;8.90;;;2.03;;
58581;SDS011;44361;51.476;5.700;2023-09-19T02:43:05;9.27;;;2.00;;
58581;SDS011;44361;51.476;5.700;2023-09-19T02:45:30;11.90;;;2.00;;
58581;SDS011;44361;51.476;5.700;2023-09-19T02:47:57;8.20;;;1.92;;
58581;SDS011;44361;51.476;5.700;2023-09-19T02:50:23;10.93;;;1.80;;
58581;SDS011;44361;51.476;5.700;2023-09-19T02:52:48;8.25;;;1.88;;
58581;SDS011;44361;51.476;5.700;2023-09-19T02:55:15;11.02;;;1.77;;
58581;SDS011;44361;51.476;5.700;2023-09-19T02:57:48;10.43;;;1.90;;
58581;SDS011;44361;51.476;5.700;2023-09-19T03:00:15;10.85;;;1.67;;
58581;SDS011;44361;51.476;5.700;2023-09-19T03:02:45;10.25;;;1.80;;
58581;SDS011;44361;51.476;5.700;2023-09-19T03:05:11;10.95;;;2.17;;
58581;SDS011;44361;51.476;5.700;2023-09-19T03:07:37;10.20;;;2.05;;
58581;SDS011;44361;51.476;5.700;2023-09-19T03:10:07;4.95;;;1.63;;
58581;SDS011;44361;51.476;5.700;2023-09-19T03:12:34;9.88;;;1.50;;
58581;SDS011;44361;51.476;5.700;2023-09-19T03:15:00;16.15;;;2.30;;
58581;SDS011;44361;51.476;5.700;2023-09-19T03:17:26;9.45;;;1.50;;
58581;SDS011;44361;51.476;5.700;2023-09-19T03:19:52;10.68;;;1.65;;
58581;SDS011;44361;51.476;5.700;2023-09-19T03:22:18;9.98;;;1.67;;
58581;SDS011;44361;51.476;5.700;2023-09-19T03:24:44;9.45;;;1.67;;
58581;SDS011;44361;51.476;5.700;2023-09-19T03:27:11;8.45;;;1.73;;
58581;SDS011;44361;51.476;5.700;2023-09-19T03:29:39;12.30;;;1.65;;
58581;SDS011;44361;51.476;5.700;2023-09-19T03:32:04;9.50;;;1.67;;
58581;SDS011;44361;51.476;5.700;2023-09-19T03:34:30;8.32;;;1.63;;
58581;SDS011;44361;51.476;5.700;2023-09-19T03:36:56;8.90;;;1.77;;
58581;SDS011;44361;51.476;5.700;2023-09-19T03:39:21;7.30;;;1.85;;
58581;SDS011;44361;51.476;5.700;2023-09-19T03:41:47;16.30;;;2.20;;
58581;SDS011;44361;51.476;5.700;2023-09-19T03:44:14;13.43;;;2.00;;
58581;SDS011;44361;51.476;5.700;2023-09-19T03:46:40;10.32;;;1.70;;
58581;SDS011;44361;51.476;5.700;2023-09-19T03:49:05;17.70;;;2.78;;
58581;SDS011;44361;51.476;5.700;2023-09-19T03:51:31;11.13;;;2.45;;
58581;SDS011;44361;51.476;5.700;2023-09-19T03:53:59;12.07;;;2.08;;
58581;SDS011;44361;51.476;5.700;2023-09-19T03:56:24;12.50;;;2.10;;
58581;SDS011;44361;51.476;5.700;2023-09-19T03:58:50;11.68;;;1.98;;
58581;SDS011;44361;51.476;5.700;2023-09-19T04:01:15;7.60;;;2.15;;
58581;SDS011;44361;51.476;5.700;2023-09-19T04:03:41;9.75;;;2.47;;
58581;SDS011;44361;51.476;5.700;2023-09-19T04:06:13;11.88;;;1.70;;
58581;SDS011;44361;51.476;5.700;2023-09-19T04:08:40;12.07;;;2.00;;
58581;SDS011;44361;51.476;5.700;2023-09-19T04:11:05;14.27;;;2.30;;
58581;SDS011;44361;51.476;5.700;2023-09-19T04:13:31;10.43;;;1.90;;
58581;SDS011;44361;51.476;5.700;2023-09-19T04:15:57;17.20;;;2.70;;
58581;SDS011;44361;51.476;5.700;2023-09-19T04:18:22;11.90;;;2.15;;
58581;SDS011;44361;51.476;5.700;2023-09-19T04:20:50;13.85;;;2.75;;
58581;SDS011;44361;51.476;5.700;2023-09-19T04:23:16;12.80;;;2.78;;
58581;SDS011;44361;51.476;5.700;2023-09-19T04:25:42;15.35;;;2.47;;
58581;SDS011;44361;51.476;5.700;2023-09-19T04:28:08;10.30;;;2.30;;
58581;SDS011;44361;51.476;5.700;2023-09-19T04:30:36;15.38;;;2.40;;
58581;SDS011;44361;51.476;5.700;2023-09-19T04:33:02;11.43;;;2.00;;
58581;SDS011;44361;51.476;5.700;2023-09-19T04:35:28;10.18;;;2.33;;
58581;SDS011;44361;51.476;5.700;2023-09-19T04:37:56;13.27;;;1.95;;
58581;SDS011;44361;51.476;5.700;2023-09-19T04:40:22;11.68;;;2.33;;
58581;SDS011;44361;51.476;5.700;2023-09-19T04:42:53;11.93;;;2.10;;
58581;SDS011;44361;51.476;5.700;2023-09-19T04:45:24;10.38;;;1.95;;
58581;SDS011;44361;51.476;5.700;2023-09-19T04:47:51;12.95;;;3.05;;
58581;SDS011;44361;51.476;5.700;2023-09-19T04:50:17;9.80;;;2.03;;
58581;SDS011;44361;51.476;5.700;2023-09-19T04:52:43;14.13;;;2.03;;
58581;SDS011;44361;51.476;5.700;2023-09-19T04:55:10;16.92;;;2.53;;
58581;SDS011;44361;51.476;5.700;2023-09-19T04:57:41;8.40;;;1.85;;
58581;SDS011;44361;51.476;5.700;2023-09-19T05:00:07;18.30;;;2.38;;
58581;SDS011;44361;51.476;5.700;2023-09-19T05:02:37;12.45;;;1.85;;
58581;SDS011;44361;51.476;5.700;2023-09-19T05:05:03;14.48;;;4.03;;
58581;SDS011;44361;51.476;5.700;2023-09-19T05:07:30;8.73;;;1.83;;
58581;SDS011;44361;51.476;5.700;2023-09-19T05:09:55;11.00;;;2.03;;
58581;SDS011;44361;51.476;5.700;2023-09-19T05:12:20;9.82;;;2.10;;
58581;SDS011;44361;51.476;5.700;2023-09-19T05:14:46;13.77;;;2.30;;
58581;SDS011;44361;51.476;5.700;2023-09-19T05:17:12;11.00;;;2.50;;
58581;SDS011;44361;51.476;5.700;2023-09-19T05:19:38;9.90;;;2.15;;
58581;SDS011;44361;51.476;5.700;2023-09-19T05:22:04;11.45;;;2.10;;
58581;SDS011;44361;51.476;5.700;2023-09-19T05:24:29;7.93;;;2.30;;
58581;SDS011;44361;51.476;5.700;2023-09-19T05:26:56;13.98;;;2.75;;
58581;SDS011;44361;51.476;5.700;2023-09-19T05:29:21;14.50;;;2.60;;
58581;SDS011;44361;51.476;5.700;2023-09-19T05:31:47;9.48;;;2.03;;
58581;SDS011;44361;51.476;5.700;2023-09-19T05:34:14;12.95;;;1.85;;
58581;SDS011;44361;51.476;5.700;2023-09-19T05:36:40;16.10;;;2.40;;
58581;SDS011;44361;51.476;5.700;2023-09-19T05:39:05;13.07;;;1.90;;
58581;SDS011;44361;51.476;5.700;2023-09-19T05:41:34;14.23;;;2.45;;
58581;SDS011;44361;51.476;5.700;2023-09-19T05:44:01;15.00;;;2.30;;
58581;SDS011;44361;51.476;5.700;2023-09-19T05:46:31;13.90;;;2.45;;
58581;SDS011;44361;51.476;5.700;2023-09-19T05:48:57;12.40;;;2.03;;
58581;SDS011;44361;51.476;5.700;2023-09-19T05:51:23;13.82;;;2.33;;
58581;SDS011;44361;51.476;5.700;2023-09-19T05:53:48;15.55;;;2.10;;
58581;SDS011;44361;51.476;5.700;2023-09-19T05:56:15;11.45;;;1.70;;
58581;SDS011;44361;51.476;5.700;2023-09-19T05:58:40;8.63;;;1.70;;
58581;SDS011;44361;51.476;5.700;2023-09-19T06:01:09;8.25;;;1.98;;
58581;SDS011;44361;51.476;5.700;2023-09-19T06:03:35;9.27;;;2.28;;
58581;SDS011;44361;51.476;5.700;2023-09-19T06:06:01;11.13;;;2.10;;
58581;SDS011;44361;51.476;5.700;2023-09-19T06:08:27;10.70;;;2.00;;
58581;SDS011;44361;51.476;5.700;2023-09-19T06:10:53;15.27;;;2.17;;
58581;SDS011;44361;51.476;5.700;2023-09-19T06:13:19;18.65;;;1.80;;
58581;SDS011;44361;51.476;5.700;2023-09-19T06:15:45;7.25;;;2.10;;
58581;SDS011;44361;51.476;5.700;2023-09-19T06:18:12;14.73;;;2.13;;
58581;SDS011;44361;51.476;5.700;2023-09-19T06:20:44;11.13;;;2.47;;
58581;SDS011;44361;51.476;5.700;2023-09-19T06:23:13;13.43;;;2.50;;
58581;SDS011;44361;51.476;5.700;2023-09-19T06:25:39;14.05;;;2.45;;
58581;SDS011;44361;51.476;5.700;2023-09-19T06:28:05;14.43;;;2.83;;
58581;SDS011;44361;51.476;5.700;2023-09-19T06:30:33;9.95;;;1.80;;
58581;SDS011;44361;51.476;5.700;2023-09-19T06:32:59;10.35;;;2.20;;
58581;SDS011;44361;51.476;5.700;2023-09-19T06:35:26;11.00;;;2.50;;
58581;SDS011;44361;51.476;5.700;2023-09-19T06:37:52;15.07;;;2.08;;
58581;SDS011;44361;51.476;5.700;2023-09-19T06:40:18;15.93;;;2.65;;
58581;SDS011;44361;51.476;5.700;2023-09-19T06:42:45;17.70;;;2.42;;
58581;SDS011;44361;51.476;5.700;2023-09-19T06:45:12;16.23;;;1.83;;
58581;SDS011;44361;51.476;5.700;2023-09-19T06:47:43;11.88;;;2.38;;
58581;SDS011;44361;51.476;5.700;2023-09-19T06:50:19;12.68;;;2.50;;
58581;SDS011;44361;51.476;5.700;2023-09-19T06:52:47;9.65;;;2.25;;
58581;SDS011;44361;51.476;5.700;2023-09-19T06:55:15;11.40;;;1.70;;
58581;SDS011;44361;51.476;5.700;2023-09-19T06:57:42;19.92;;;2.33;;
58581;SDS011;44361;51.476;5.700;2023-09-19T07:00:09;16.75;;;2.50;;
58581;SDS011;44361;51.476;5.700;2023-09-19T07:02:43;11.98;;;2.70;;
58581;SDS011;44361;51.476;5.700;2023-09-19T07:05:19;12.65;;;2.33;;
58581;SDS011;44361;51.476;5.700;2023-09-19T07:07:46;13.93;;;2.20;;
58581;SDS011;44361;51.476;5.700;2023-09-19T07:10:12;13.68;;;2.10;;
58581;SDS011;44361;51.476;5.700;2023-09-19T07:12:38;10.65;;;2.10;;
58581;SDS011;44361;51.476;5.700;2023-09-19T07:15:04;16.40;;;2.42;;
58581;SDS011;44361;51.476;5.700;2023-09-19T07:17:31;9.93;;;1.90;;
58581;SDS011;44361;51.476;5.700;2023-09-19T07:19:57;14.63;;;2.80;;
58581;SDS011;44361;51.476;5.700;2023-09-19T07:22:23;13.07;;;2.50;;
58581;SDS011;44361;51.476;5.700;2023-09-19T07:24:49;14.85;;;2.50;;
58581;SDS011;44361;51.476;5.700;2023-09-19T07:27:14;9.27;;;2.35;;
58581;SDS011;44361;51.476;5.700;2023-09-19T07:29:41;9.43;;;2.05;;
58581;SDS011;44361;51.476;5.700;2023-09-19T07:32:06;14.05;;;1.92;;
58581;SDS011;44361;51.476;5.700;2023-09-19T07:34:33;13.05;;;2.17;;
58581;SDS011;44361;51.476;5.700;2023-09-19T07:36:58;10.57;;;2.60;;
58581;SDS011;44361;51.476;5.700;2023-09-19T07:39:24;14.90;;;2.38;;
58581;SDS011;44361;51.476;5.700;2023-09-19T07:41:49;10.68;;;1.95;;
58581;SDS011;44361;51.476;5.700;2023-09-19T07:44:15;14.18;;;2.67;;
58581;SDS011;44361;51.476;5.700;2023-09-19T07:46:42;6.45;;;1.63;;
58581;SDS011;44361;51.476;5.700;2023-09-19T07:49:09;12.48;;;1.95;;
58581;SDS011;44361;51.476;5.700;2023-09-19T07:51:35;12.77;;;2.17;;
58581;SDS011;44361;51.476;5.700;2023-09-19T07:54:01;7.18;;;2.00;;
58581;SDS011;44361;51.476;5.700;2023-09-19T07:56:26;11.80;;;1.95;;
58581;SDS011;44361;51.476;5.700;2023-09-19T07:58:52;11.73;;;2.13;;
58581;SDS011;44361;51.476;5.700;2023-09-19T08:01:18;18.33;;;1.88;;
58581;SDS011;44361;51.476;5.700;2023-09-19T08:03:43;13.77;;;2.10;;
58581;SDS011;44361;51.476;5.700;2023-09-19T08:06:10;14.32;;;2.33;;
58581;SDS011;44361;51.476;5.700;2023-09-19T08:08:36;11.13;;;1.52;;
58581;SDS011;44361;51.476;5.700;2023-09-19T08:11:02;7.03;;;1.45;;
58581;SDS011;44361;51.476;5.700;2023-09-19T08:13:36;16.40;;;1.80;;
58581;SDS011;44361;51.476;5.700;2023-09-19T08:16:03;12.75;;;2.38;;
58581;SDS011;44361;51.476;5.700;2023-09-19T08:18:29;11.75;;;2.50;;
58581;SDS011;44361;51.476;5.700;2023-09-19T08:20:55;10.50;;;1.92;;
58581;SDS011;44361;51.476;5.700;2023-09-19T08:23:23;20.50;;;2.47;;
58581;SDS011;44361;51.476;5.700;2023-09-19T08:25:49;10.95;;;2.17;;
58581;SDS011;44361;51.476;5.700;2023-09-19T08:28:15;12.88;;;2.20;;
58581;SDS011;44361;51.476;5.700;2023-09-19T08:30:44;12.63;;;2.50;;
58581;SDS011;44361;51.476;5.700;2023-09-19T08:33:11;16.55;;;1.83;;
58581;SDS011;44361;51.476;5.700;2023-09-19T08:35:36;14.43;;;1.95;;
58581;SDS011;44361;51.476;5.700;2023-09-19T08:38:04;14.75;;;2.63;;
58581;SDS011;44361;51.476;5.700;2023-09-19T08:40:31;15.50;;;2.50;;
58581;SDS011;44361;51.476;5.700;2023-09-19T08:42:58;12.73;;;1.52;;
58581;SDS011;44361;51.476;5.700;2023-09-19T08:45:25;12.73;;;2.60;;
58581;SDS011;44361;51.476;5.700;2023-09-19T08:53:14;9.63;;;1.60;;
58581;SDS011;44361;51.476;5.700;2023-09-19T08:55:48;13.05;;;2.25;;
58581;SDS011;44361;51.476;5.700;2023-09-19T08:58:19;12.15;;;2.00;;
58581;SDS011;44361;51.476;5.700;2023-09-19T09:00:47;10.40;;;1.92;;
58581;SDS011;44361;51.476;5.700;2023-09-19T09:03:15;9.57;;;2.53;;
58581;SDS011;44361;51.476;5.700;2023-09-19T09:05:44;11.82;;;1.83;;
58581;SDS011;44361;51.476;5.700;2023-09-19T09:08:11;12.23;;;2.28;;
58581;SDS011;44361;51.476;5.700;2023-09-19T09:10:38;11.25;;;2.35;;
58581;SDS011;44361;51.476;5.700;2023-09-19T09:13:05;10.95;;;2.25;;
58581;SDS011;44361;51.476;5.700;2023-09-19T09:15:31;12.10;;;2.25;;
58581;SDS011;44361;51.476;5.700;2023-09-19T09:18:01;14.77;;;2.33;;
58581;SDS011;44361;51.476;5.700;2023-09-19T09:20:29;15.05;;;2.30;;
58581;SDS011;44361;51.476;5.700;2023-09-19T09:22:56;9.93;;;2.30;;
58581;SDS011;44361;51.476;5.700;2023-09-19T09:25:46;13.07;;;2.17;;
58581;SDS011;44361;51.476;5.700;2023-09-19T09:28:23;11.88;;;2.10;;
58581;SDS011;44361;51.476;5.700;2023-09-19T09:30:51;14.32;;;2.42;;
58581;SDS011;44361;51.476;5.700;2023-09-19T09:33:17;13.30;;;2.63;;
58581;SDS011;44361;51.476;5.700;2023-09-19T09:35:56;15.13;;;2.33;;
58581;SDS011;44361;51.476;5.700;2023-09-19T09:38:29;16.90;;;2.15;;
58581;SDS011;44361;51.476;5.700;2023-09-19T09:41:08;13.80;;;2.80;;
58581;SDS011;44361;51.476;5.700;2023-09-19T09:43:41;14.02;;;1.67;;
58581;SDS011;44361;51.476;5.700;2023-09-19T09:46:14;11.32;;;2.00;;
58581;SDS011;44361;51.476;5.700;2023-09-19T09:51:44;8.20;;;2.15;;
58581;SDS011;44361;51.476;5.700;2023-09-19T09:54:22;11.80;;;2.08;;
58581;SDS011;44361;51.476;5.700;2023-09-19T09:56:52;12.90;;;2.42;;
58581;SDS011;44361;51.476;5.700;2023-09-19T09:59:42;13.52;;;2.55;;
58581;SDS011;44361;51.476;5.700;2023-09-19T10:02:19;14.95;;;1.63;;
58581;SDS011;44361;51.476;5.700;2023-09-19T10:04:58;5.70;;;1.60;;
58581;SDS011;44361;51.476;5.700;2023-09-19T10:07:32;10.50;;;2.15;;
58581;SDS011;44361;51.476;5.700;2023-09-19T10:10:06;14.48;;;2.53;;
58581;SDS011;44361;51.476;5.700;2023-09-19T10:12:45;11.13;;;2.15;;
58581;SDS011;44361;51.476;5.700;2023-09-19T10:15:13;11.43;;;1.63;;
58581;SDS011;44361;51.476;5.700;2023-09-19T10:17:44;10.32;;;2.30;;
58581;SDS011;44361;51.476;5.700;2023-09-19T10:20:17;9.82;;;1.65;;
58581;SDS011;44361;51.476;5.700;2023-09-19T10:22:58;8.07;;;1.83;;
58581;SDS011;44361;51.476;5.700;2023-09-19T10:25:25;11.60;;;2.15;;
58581;SDS011;44361;51.476;5.700;2023-09-19T10:28:02;10.75;;;1.90;;
58581;SDS011;44361;51.476;5.700;2023-09-19T10:30:29;8.77;;;1.83;;
58581;SDS011;44361;51.476;5.700;2023-09-19T10:33:00;9.90;;;2.05;;
58581;SDS011;44361;51.476;5.700;2023-09-19T10:35:27;10.43;;;1.95;;
58581;SDS011;44361;51.476;5.700;2023-09-19T10:37:54;8.40;;;1.88;;
58581;SDS011;44361;51.476;5.700;2023-09-19T10:40:24;11.82;;;2.35;;
58581;SDS011;44361;51.476;5.700;2023-09-19T10:42:56;10.20;;;2.10;;
58581;SDS011;44361;51.476;5.700;2023-09-19T10:45:30;8.20;;;1.88;;
58581;SDS011;44361;51.476;5.700;2023-09-19T10:48:00;10.05;;;2.08;;
58581;SDS011;44361;51.476;5.700;2023-09-19T10:50:30;10.27;;;1.77;;
58581;SDS011;44361;51.476;5.700;2023-09-19T10:53:00;9.15;;;2.05;;
58581;SDS011;44361;51.476;5.700;2023-09-19T10:55:30;12.10;;;2.10;;
58581;SDS011;44361;51.476;5.700;2023-09-19T10:57:58;7.32;;;1.98;;
58581;SDS011;44361;51.476;5.700;2023-09-19T11:00:25;17.63;;;1.70;;
58581;SDS011;44361;51.476;5.700;2023-09-19T11:05:39;12.70;;;1.85;;
58581;SDS011;44361;51.476;5.700;2023-09-19T11:08:09;7.50;;;1.60;;
58581;SDS011;44361;51.476;5.700;2023-09-19T11:10:46;10.98;;;2.25;;
58581;SDS011;44361;51.476;5.700;2023-09-19T11:13:23;9.88;;;2.08;;
58581;SDS011;44361;51.476;5.700;2023-09-19T11:26:44;9.50;;;1.42;;
58581;SDS011;44361;51.476;5.700;2023-09-19T11:29:26;7.47;;;1.58;;
58581;SDS011;44361;51.476;5.700;2023-09-19T11:31:54;9.60;;;1.67;;
58581;SDS011;44361;51.476;5.700;2023-09-19T11:39:39;9.10;;;1.77;;
58581;SDS011;44361;51.476;5.700;2023-09-19T11:45:06;8.50;;;1.20;;
58581;SDS011;44361;51.476;5.700;2023-09-19T11:47:31;4.72;;;1.23;;
58581;SDS011;44361;51.476;5.700;2023-09-19T11:50:00;10.68;;;1.58;;
58581;SDS011;44361;51.476;5.700;2023-09-19T11:52:26;7.03;;;1.23;;
58581;SDS011;44361;51.476;5.700;2023-09-19T11:54:59;8.82;;;1.67;;
58581;SDS011;44361;51.476;5.700;2023-09-19T11:57:26;7.25;;;1.45;;
58581;SDS011;44361;51.476;5.700;2023-09-19T11:59:55;8.43;;;2.42;;
58581;SDS011;44361;51.476;5.700;2023-09-19T12:02:39;6.40;;;1.23;;
58581;SDS011;44361;51.476;5.700;2023-09-19T12:05:07;6.95;;;1.10;;
58581;SDS011;44361;51.476;5.700;2023-09-19T12:07:41;7.28;;;1.52;;
58581;SDS011;44361;51.476;5.700;2023-09-19T12:10:08;3.20;;;0.70;;
58581;SDS011;44361;51.476;5.700;2023-09-19T12:12:36;5.72;;;1.23;;
58581;SDS011;44361;51.476;5.700;2023-09-19T12:15:02;9.18;;;1.10;;
58581;SDS011;44361;51.476;5.700;2023-09-19T12:17:38;7.78;;;1.30;;
58581;SDS011;44361;51.476;5.700;2023-09-19T12:20:06;3.25;;;0.80;;
58581;SDS011;44361;51.476;5.700;2023-09-19T12:22:42;4.85;;;1.45;;
58581;SDS011;44361;51.476;5.700;2023-09-19T12:25:09;5.70;;;0.85;;
58581;SDS011;44361;51.476;5.700;2023-09-19T12:27:46;4.50;;;0.57;;
58581;SDS011;44361;51.476;5.700;2023-09-19T12:30:13;4.15;;;1.23;;
58581;SDS011;44361;51.476;5.700;2023-09-19T12:32:39;2.92;;;0.88;;
58581;SDS011;44361;51.476;5.700;2023-09-19T12:35:08;4.13;;;0.80;;
58581;SDS011;44361;51.476;5.700;2023-09-19T12:37:42;7.45;;;1.13;;
58581;SDS011;44361;51.476;5.700;2023-09-19T12:40:18;3.20;;;0.90;;
58581;SDS011;44361;51.476;5.700;2023-09-19T12:45:20;6.38;;;0.73;;
58581;SDS011;44361;51.476;5.700;2023-09-19T12:51:03;6.45;;;1.00;;
58581;SDS011;44361;51.476;5.700;2023-09-19T12:53:32;3.85;;;0.80;;
58581;SDS011;44361;51.476;5.700;2023-09-19T12:56:05;4.97;;;0.68;;
58581;SDS011;44361;51.476;5.700;2023-09-19T12:58:33;3.65;;;0.60;;
58581;SDS011;44361;51.476;5.700;2023-09-19T13:01:00;3.05;;;0.60;;
58581;SDS011;44361;51.476;5.700;2023-09-19T13:03:30;4.22;;;0.50;;
58581;SDS011;44361;51.476;5.700;2023-09-19T13:06:03;2.50;;;0.80;;
58581;SDS011;44361;51.476;5.700;2023-09-19T13:19:36;4.00;;;0.90;;
58581;SDS011;44361;51.476;5.700;2023-09-19T13:25:13;1.25;;;0.50;;
58581;SDS011;44361;51.476;5.700;2023-09-19T13:30:13;6.68;;;0.65;;
58581;SDS011;44361;51.476;5.700;2023-09-19T13:32:38;7.38;;;0.80;;
58581;SDS011;44361;51.476;5.700;2023-09-19T13:35:05;3.38;;;0.55;;
58581;SDS011;44361;51.476;5.700;2023-09-19T13:37:34;4.05;;;1.08;;
58581;SDS011;44361;51.476;5.700;2023-09-19T13:40:09;4.30;;;0.52;;
58581;SDS011;44361;51.476;5.700;2023-09-19T13:42:39;6.65;;;0.68;;
58581;SDS011;44361;51.476;5.700;2023-09-19T13:45:07;2.65;;;0.70;;
58581;SDS011;44361;51.476;5.700;2023-09-19T13:47:36;7.57;;;0.75;;
58581;SDS011;44361;51.476;5.700;2023-09-19T13:50:03;3.78;;;0.50;;
58581;SDS011;44361;51.476;5.700;2023-09-19T13:52:29;3.60;;;0.50;;
58581;SDS011;44361;51.476;5.700;2023-09-19T13:54:56;5.15;;;0.70;;
58581;SDS011;44361;51.476;5.700;2023-09-19T13:57:25;2.75;;;0.50;;
58581;SDS011;44361;51.476;5.700;2023-09-19T13:59:52;2.03;;;0.50;;
58581;SDS011;44361;51.476;5.700;2023-09-19T14:02:21;2.85;;;0.73;;
58581;SDS011;44361;51.476;5.700;2023-09-19T14:04:50;4.50;;;0.95;;
58581;SDS011;44361;51.476;5.700;2023-09-19T14:07:16;2.00;;;0.70;;
58581;SDS011;44361;51.476;5.700;2023-09-19T14:09:43;4.45;;;0.88;;
58581;SDS011;44361;51.476;5.700;2023-09-19T14:12:09;3.85;;;0.60;;
58581;SDS011;44361;51.476;5.700;2023-09-19T14:14:35;4.00;;;0.90;;
58581;SDS011;44361;51.476;5.700;2023-09-19T14:17:02;5.22;;;0.70;;
58581;SDS011;44361;51.476;5.700;2023-09-19T14:19:28;4.00;;;0.65;;
58581;SDS011;44361;51.476;5.700;2023-09-19T14:21:53;4.63;;;0.80;;
58581;SDS011;44361;51.476;5.700;2023-09-19T14:24:22;2.25;;;0.82;;
58581;SDS011;44361;51.476;5.700;2023-09-19T14:26:48;6.88;;;0.80;;
58581;SDS011;44361;51.476;5.700;2023-09-19T14:29:14;6.75;;;1.05;;
58581;SDS011;44361;51.476;5.700;2023-09-19T14:31:40;11.57;;;1.13;;
58581;SDS011;44361;51.476;5.700;2023-09-19T14:34:07;8.40;;;0.77;;
58581;SDS011;44361;51.476;5.700;2023-09-19T14:36:35;14.00;;;1.48;;
58581;SDS011;44361;51.476;5.700;2023-09-19T14:39:01;4.53;;;1.00;;
58581;SDS011;44361;51.476;5.700;2023-09-19T14:41:27;5.25;;;0.80;;
58581;SDS011;44361;51.476;5.700;2023-09-19T14:43:53;3.97;;;0.60;;
58581;SDS011;44361;51.476;5.700;2023-09-19T14:46:20;4.47;;;1.23;;
58581;SDS011;44361;51.476;5.700;2023-09-19T14:48:45;4.22;;;1.10;;
58581;SDS011;44361;51.476;5.700;2023-09-19T14:51:12;4.20;;;0.95;;
58581;SDS011;44361;51.476;5.700;2023-09-19T14:53:38;5.93;;;0.73;;
58581;SDS011;44361;51.476;5.700;2023-09-19T14:56:08;2.60;;;0.57;;
58581;SDS011;44361;51.476;5.700;2023-09-19T14:58:34;1.77;;;0.47;;
58581;SDS011;44361;51.476;5.700;2023-09-19T15:01:10;6.97;;;0.95;;
58581;SDS011;44361;51.476;5.700;2023-09-19T15:03:36;2.67;;;0.90;;
58581;SDS011;44361;51.476;5.700;2023-09-19T15:06:04;3.75;;;0.65;;
58581;SDS011;44361;51.476;5.700;2023-09-19T15:08:36;4.38;;;0.90;;
58581;SDS011;44361;51.476;5.700;2023-09-19T15:11:03;3.80;;;0.80;;
58581;SDS011;44361;51.476;5.700;2023-09-19T15:13:30;3.25;;;0.80;;
58581;SDS011;44361;51.476;5.700;2023-09-19T15:16:03;5.00;;;0.80;;
58581;SDS011;44361;51.476;5.700;2023-09-19T15:18:33;2.65;;;0.80;;
58581;SDS011;44361;51.476;5.700;2023-09-19T15:21:06;5.10;;;0.80;;
58581;SDS011;44361;51.476;5.700;2023-09-19T15:23:32;5.50;;;0.98;;
58581;SDS011;44361;51.476;5.700;2023-09-19T15:25:59;6.85;;;1.10;;
58581;SDS011;44361;51.476;5.700;2023-09-19T15:28:29;3.80;;;0.70;;
58581;SDS011;44361;51.476;5.700;2023-09-19T15:31:03;5.57;;;1.27;;
58581;SDS011;44361;51.476;5.700;2023-09-19T15:33:30;5.78;;;0.85;;
58581;SDS011;44361;51.476;5.700;2023-09-19T15:36:14;3.45;;;0.80;;
58581;SDS011;44361;51.476;5.700;2023-09-19T15:41:18;2.85;;;0.60;;
58581;SDS011;44361;51.476;5.700;2023-09-19T15:43:45;5.05;;;0.95;;
58581;SDS011;44361;51.476;5.700;2023-09-19T15:46:10;3.60;;;0.80;;
58581;SDS011;44361;51.476;5.700;2023-09-19T15:48:36;1.75;;;0.80;;
58581;SDS011;44361;51.476;5.700;2023-09-19T15:51:04;5.82;;;0.75;;
58581;SDS011;44361;51.476;5.700;2023-09-19T15:53:46;2.08;;;0.63;;
58581;SDS011;44361;51.476;5.700;2023-09-19T15:56:18;7.07;;;1.10;;
58581;SDS011;44361;51.476;5.700;2023-09-19T15:58:49;3.33;;;0.95;;
58581;SDS011;44361;51.476;5.700;2023-09-19T16:01:16;5.50;;;1.50;;
58581;SDS011;44361;51.476;5.700;2023-09-19T16:03:43;3.88;;;0.90;;
58581;SDS011;44361;51.476;5.700;2023-09-19T16:06:21;4.82;;;0.88;;